sensor_id;sensor_type;location;lat;lon;timestamp;P1;durP1;ratioP1;P2;durP2;ratioP2
68858;SDS011;55864;49.238;8.092;2022-12-01T00:01:28;16.03;;;6.00;;
68858;SDS011;55864;49.238;8.092;2022-12-01T00:03:30;16.57;;;6.07;;
68858;SDS011;55864;49.238;8.092;2022-12-01T00:05:31;15.63;;;6.60;;
68858;SDS011;55864;49.238;8.092;2022-12-01T00:07:32;14.83;;;5.97;;
68858;SDS011;55864;49.238;8.092;2022-12-01T00:09:32;15.60;;;6.10;;
68858;SDS011;55864;49.238;8.092;2022-12-01T00:11:33;16.47;;;6.90;;
68858;SDS011;55864;49.238;8.092;2022-12-01T00:13:35;17.73;;;6.90;;
68858;SDS011;55864;49.238;8.092;2022-12-01T00:15:37;15.60;;;6.43;;
68858;SDS011;55864;49.238;8.092;2022-12-01T00:17:37;18.63;;;6.93;;
68858;SDS011;55864;49.238;8.092;2022-12-01T00:19:38;18.57;;;7.10;;
68858;SDS011;55864;49.238;8.092;2022-12-01T00:21:38;17.90;;;7.87;;
68858;SDS011;55864;49.238;8.092;2022-12-01T00:23:41;19.97;;;7.80;;
68858;SDS011;55864;49.238;8.092;2022-12-01T00:25:42;18.33;;;7.47;;
68858;SDS011;55864;49.238;8.092;2022-12-01T00:27:42;19.50;;;7.37;;
68858;SDS011;55864;49.238;8.092;2022-12-01T00:29:46;19.00;;;7.57;;
68858;SDS011;55864;49.238;8.092;2022-12-01T00:31:48;21.60;;;8.30;;
68858;SDS011;55864;49.238;8.092;2022-12-01T00:33:49;21.07;;;7.93;;
68858;SDS011;55864;49.238;8.092;2022-12-01T00:35:52;21.83;;;7.63;;
68858;SDS011;55864;49.238;8.092;2022-12-01T00:37:57;18.10;;;7.23;;
68858;SDS011;55864;49.238;8.092;2022-12-01T00:39:57;18.90;;;7.27;;
68858;SDS011;55864;49.238;8.092;2022-12-01T00:41:58;23.50;;;7.87;;
68858;SDS011;55864;49.238;8.092;2022-12-01T00:43:58;20.00;;;7.50;;
68858;SDS011;55864;49.238;8.092;2022-12-01T00:45:59;21.37;;;8.50;;
68858;SDS011;55864;49.238;8.092;2022-12-01T00:48:01;19.47;;;7.87;;
68858;SDS011;55864;49.238;8.092;2022-12-01T00:50:02;20.57;;;8.50;;
68858;SDS011;55864;49.238;8.092;2022-12-01T00:52:02;21.87;;;7.90;;
68858;SDS011;55864;49.238;8.092;2022-12-01T00:54:03;20.83;;;8.17;;
68858;SDS011;55864;49.238;8.092;2022-12-01T00:56:04;20.70;;;8.53;;
68858;SDS011;55864;49.238;8.092;2022-12-01T00:58:04;23.40;;;8.40;;
68858;SDS011;55864;49.238;8.092;2022-12-01T01:00:06;23.93;;;9.30;;
68858;SDS011;55864;49.238;8.092;2022-12-01T01:02:07;21.37;;;8.77;;
68858;SDS011;55864;49.238;8.092;2022-12-01T01:04:09;23.83;;;9.47;;
68858;SDS011;55864;49.238;8.092;2022-12-01T01:06:10;20.43;;;8.60;;
68858;SDS011;55864;49.238;8.092;2022-12-01T01:08:12;22.27;;;8.90;;
68858;SDS011;55864;49.238;8.092;2022-12-01T01:10:13;21.33;;;9.13;;
68858;SDS011;55864;49.238;8.092;2022-12-01T01:12:13;23.77;;;9.47;;
68858;SDS011;55864;49.238;8.092;2022-12-01T01:14:14;24.23;;;9.70;;
68858;SDS011;55864;49.238;8.092;2022-12-01T01:16:15;23.43;;;9.43;;
68858;SDS011;55864;49.238;8.092;2022-12-01T01:18:17;24.55;;;9.93;;
68858;SDS011;55864;49.238;8.092;2022-12-01T01:20:19;22.30;;;9.33;;
68858;SDS011;55864;49.238;8.092;2022-12-01T01:22:20;22.90;;;9.33;;
68858;SDS011;55864;49.238;8.092;2022-12-01T01:24:20;25.93;;;9.80;;
68858;SDS011;55864;49.238;8.092;2022-12-01T01:26:21;21.93;;;9.60;;
68858;SDS011;55864;49.238;8.092;2022-12-01T01:28:23;26.20;;;10.50;;
68858;SDS011;55864;49.238;8.092;2022-12-01T01:30:24;25.03;;;9.77;;
68858;SDS011;55864;49.238;8.092;2022-12-01T01:32:24;25.13;;;10.03;;
68858;SDS011;55864;49.238;8.092;2022-12-01T01:34:25;26.87;;;10.37;;
68858;SDS011;55864;49.238;8.092;2022-12-01T01:36:26;27.00;;;11.10;;
68858;SDS011;55864;49.238;8.092;2022-12-01T01:38:27;24.70;;;9.77;;
68858;SDS011;55864;49.238;8.092;2022-12-01T01:40:29;26.63;;;10.83;;
68858;SDS011;55864;49.238;8.092;2022-12-01T01:42:30;28.57;;;11.10;;
68858;SDS011;55864;49.238;8.092;2022-12-01T01:44:47;26.43;;;10.93;;
68858;SDS011;55864;49.238;8.092;2022-12-01T01:46:50;25.93;;;10.33;;
68858;SDS011;55864;49.238;8.092;2022-12-01T01:48:51;27.47;;;11.50;;
68858;SDS011;55864;49.238;8.092;2022-12-01T01:50:53;25.98;;;11.50;;
68858;SDS011;55864;49.238;8.092;2022-12-01T01:52:56;27.33;;;10.93;;
68858;SDS011;55864;49.238;8.092;2022-12-01T01:55:01;27.63;;;11.30;;
68858;SDS011;55864;49.238;8.092;2022-12-01T01:57:02;26.70;;;11.43;;
68858;SDS011;55864;49.238;8.092;2022-12-01T01:59:05;29.03;;;11.80;;
68858;SDS011;55864;49.238;8.092;2022-12-01T02:01:06;33.50;;;12.80;;
68858;SDS011;55864;49.238;8.092;2022-12-01T02:03:07;28.90;;;12.10;;
68858;SDS011;55864;49.238;8.092;2022-12-01T02:05:11;33.13;;;11.37;;
68858;SDS011;55864;49.238;8.092;2022-12-01T02:07:15;30.90;;;11.60;;
68858;SDS011;55864;49.238;8.092;2022-12-01T02:09:19;31.20;;;12.63;;
68858;SDS011;55864;49.238;8.092;2022-12-01T02:13:46;30.17;;;12.33;;
68858;SDS011;55864;49.238;8.092;2022-12-01T02:15:57;30.70;;;11.73;;
68858;SDS011;55864;49.238;8.092;2022-12-01T02:18:10;27.90;;;12.40;;
68858;SDS011;55864;49.238;8.092;2022-12-01T02:23:37;31.67;;;12.63;;
68858;SDS011;55864;49.238;8.092;2022-12-01T02:26:09;31.97;;;12.83;;
68858;SDS011;55864;49.238;8.092;2022-12-01T02:28:26;33.43;;;12.73;;
68858;SDS011;55864;49.238;8.092;2022-12-01T02:30:48;32.40;;;13.20;;
68858;SDS011;55864;49.238;8.092;2022-12-01T02:32:55;29.70;;;12.37;;
68858;SDS011;55864;49.238;8.092;2022-12-01T02:35:06;30.13;;;12.03;;
68858;SDS011;55864;49.238;8.092;2022-12-01T02:37:16;32.63;;;13.67;;
68858;SDS011;55864;49.238;8.092;2022-12-01T02:39:28;30.83;;;13.47;;
68858;SDS011;55864;49.238;8.092;2022-12-01T02:41:32;31.33;;;13.77;;
68858;SDS011;55864;49.238;8.092;2022-12-01T02:43:39;34.43;;;13.77;;
68858;SDS011;55864;49.238;8.092;2022-12-01T02:45:44;29.60;;;12.53;;
68858;SDS011;55864;49.238;8.092;2022-12-01T02:47:51;30.80;;;12.90;;
68858;SDS011;55864;49.238;8.092;2022-12-01T02:49:54;36.47;;;14.43;;
68858;SDS011;55864;49.238;8.092;2022-12-01T02:51:57;31.42;;;12.90;;
68858;SDS011;55864;49.238;8.092;2022-12-01T02:54:00;31.50;;;12.23;;
68858;SDS011;55864;49.238;8.092;2022-12-01T02:56:04;29.05;;;13.27;;
68858;SDS011;55864;49.238;8.092;2022-12-01T02:58:11;30.33;;;12.80;;
68858;SDS011;55864;49.238;8.092;2022-12-01T03:00:12;31.37;;;12.97;;
68858;SDS011;55864;49.238;8.092;2022-12-01T03:02:16;33.47;;;13.68;;
68858;SDS011;55864;49.238;8.092;2022-12-01T03:04:28;33.70;;;14.20;;
68858;SDS011;55864;49.238;8.092;2022-12-01T03:06:44;33.03;;;13.27;;
68858;SDS011;55864;49.238;8.092;2022-12-01T03:08:53;35.13;;;14.10;;
68858;SDS011;55864;49.238;8.092;2022-12-01T03:11:03;33.13;;;13.50;;
68858;SDS011;55864;49.238;8.092;2022-12-01T03:13:08;35.53;;;13.67;;
68858;SDS011;55864;49.238;8.092;2022-12-01T03:15:19;33.95;;;14.48;;
68858;SDS011;55864;49.238;8.092;2022-12-01T03:17:29;33.77;;;13.43;;
68858;SDS011;55864;49.238;8.092;2022-12-01T03:19:39;33.10;;;14.03;;
68858;SDS011;55864;49.238;8.092;2022-12-01T03:21:43;31.63;;;12.67;;
68858;SDS011;55864;49.238;8.092;2022-12-01T03:23:52;32.93;;;14.00;;
68858;SDS011;55864;49.238;8.092;2022-12-01T03:25:56;32.53;;;14.30;;
68858;SDS011;55864;49.238;8.092;2022-12-01T03:28:00;33.03;;;13.57;;
68858;SDS011;55864;49.238;8.092;2022-12-01T03:30:03;40.93;;;14.17;;
68858;SDS011;55864;49.238;8.092;2022-12-01T03:32:06;30.73;;;12.60;;
68858;SDS011;55864;49.238;8.092;2022-12-01T03:34:11;34.97;;;14.20;;
68858;SDS011;55864;49.238;8.092;2022-12-01T03:36:18;37.53;;;15.07;;
68858;SDS011;55864;49.238;8.092;2022-12-01T03:38:23;34.00;;;14.30;;
68858;SDS011;55864;49.238;8.092;2022-12-01T03:40:25;36.50;;;14.33;;
68858;SDS011;55864;49.238;8.092;2022-12-01T03:42:29;38.57;;;14.97;;
68858;SDS011;55864;49.238;8.092;2022-12-01T03:44:35;37.43;;;15.00;;
68858;SDS011;55864;49.238;8.092;2022-12-01T03:46:43;35.50;;;13.97;;
68858;SDS011;55864;49.238;8.092;2022-12-01T03:48:48;35.77;;;13.73;;
68858;SDS011;55864;49.238;8.092;2022-12-01T03:50:52;37.93;;;14.33;;
68858;SDS011;55864;49.238;8.092;2022-12-01T03:53:04;38.10;;;14.57;;
68858;SDS011;55864;49.238;8.092;2022-12-01T03:55:10;36.07;;;14.80;;
68858;SDS011;55864;49.238;8.092;2022-12-01T03:57:17;34.40;;;14.07;;
68858;SDS011;55864;49.238;8.092;2022-12-01T03:59:23;37.00;;;14.10;;
68858;SDS011;55864;49.238;8.092;2022-12-01T04:01:28;31.90;;;13.93;;
68858;SDS011;55864;49.238;8.092;2022-12-01T04:05:30;36.77;;;14.77;;
68858;SDS011;55864;49.238;8.092;2022-12-01T04:07:31;37.83;;;14.53;;
68858;SDS011;55864;49.238;8.092;2022-12-01T04:09:33;37.80;;;14.67;;
68858;SDS011;55864;49.238;8.092;2022-12-01T04:11:34;36.57;;;14.90;;
68858;SDS011;55864;49.238;8.092;2022-12-01T04:13:34;36.63;;;14.57;;
68858;SDS011;55864;49.238;8.092;2022-12-01T04:15:35;33.03;;;13.73;;
68858;SDS011;55864;49.238;8.092;2022-12-01T04:17:35;34.57;;;14.30;;
68858;SDS011;55864;49.238;8.092;2022-12-01T04:19:36;35.03;;;14.20;;
68858;SDS011;55864;49.238;8.092;2022-12-01T04:21:37;34.63;;;14.00;;
68858;SDS011;55864;49.238;8.092;2022-12-01T04:23:39;37.43;;;14.07;;
68858;SDS011;55864;49.238;8.092;2022-12-01T04:25:41;33.93;;;13.27;;
68858;SDS011;55864;49.238;8.092;2022-12-01T04:27:41;31.63;;;12.73;;
68858;SDS011;55864;49.238;8.092;2022-12-01T04:29:42;31.10;;;12.97;;
68858;SDS011;55864;49.238;8.092;2022-12-01T04:31:43;29.47;;;13.27;;
68858;SDS011;55864;49.238;8.092;2022-12-01T04:33:43;31.27;;;13.00;;
68858;SDS011;55864;49.238;8.092;2022-12-01T04:35:44;31.00;;;12.30;;
68858;SDS011;55864;49.238;8.092;2022-12-01T04:37:44;30.80;;;12.93;;
68858;SDS011;55864;49.238;8.092;2022-12-01T04:39:45;29.67;;;11.90;;
68858;SDS011;55864;49.238;8.092;2022-12-01T04:41:47;32.13;;;12.77;;
68858;SDS011;55864;49.238;8.092;2022-12-01T04:43:48;29.93;;;11.37;;
68858;SDS011;55864;49.238;8.092;2022-12-01T04:45:54;27.30;;;11.43;;
68858;SDS011;55864;49.238;8.092;2022-12-01T04:47:55;28.33;;;10.83;;
68858;SDS011;55864;49.238;8.092;2022-12-01T04:49:55;27.57;;;10.53;;
68858;SDS011;55864;49.238;8.092;2022-12-01T04:51:56;26.30;;;11.07;;
68858;SDS011;55864;49.238;8.092;2022-12-01T04:53:56;27.90;;;10.83;;
68858;SDS011;55864;49.238;8.092;2022-12-01T04:55:58;27.93;;;11.87;;
68858;SDS011;55864;49.238;8.092;2022-12-01T04:58:00;27.57;;;12.10;;
68858;SDS011;55864;49.238;8.092;2022-12-01T05:00:01;27.57;;;11.70;;
68858;SDS011;55864;49.238;8.092;2022-12-01T05:02:01;30.03;;;13.13;;
68858;SDS011;55864;49.238;8.092;2022-12-01T05:04:02;28.73;;;12.00;;
68858;SDS011;55864;49.238;8.092;2022-12-01T05:06:03;29.13;;;12.30;;
68858;SDS011;55864;49.238;8.092;2022-12-01T05:08:05;30.07;;;12.67;;
68858;SDS011;55864;49.238;8.092;2022-12-01T05:10:06;25.10;;;11.30;;
68858;SDS011;55864;49.238;8.092;2022-12-01T05:12:07;28.40;;;11.50;;
68858;SDS011;55864;49.238;8.092;2022-12-01T05:14:09;31.60;;;12.03;;
68858;SDS011;55864;49.238;8.092;2022-12-01T05:16:10;27.97;;;11.53;;
68858;SDS011;55864;49.238;8.092;2022-12-01T05:18:11;27.23;;;11.67;;
68858;SDS011;55864;49.238;8.092;2022-12-01T05:20:13;29.73;;;12.63;;
68858;SDS011;55864;49.238;8.092;2022-12-01T05:22:18;30.67;;;12.43;;
68858;SDS011;55864;49.238;8.092;2022-12-01T05:24:19;27.47;;;12.00;;
68858;SDS011;55864;49.238;8.092;2022-12-01T05:26:20;29.43;;;11.87;;
68858;SDS011;55864;49.238;8.092;2022-12-01T05:28:24;30.20;;;12.90;;
68858;SDS011;55864;49.238;8.092;2022-12-01T05:30:26;31.27;;;12.80;;
68858;SDS011;55864;49.238;8.092;2022-12-01T05:32:26;29.23;;;12.30;;
68858;SDS011;55864;49.238;8.092;2022-12-01T05:34:27;28.87;;;12.33;;
68858;SDS011;55864;49.238;8.092;2022-12-01T05:36:27;28.10;;;11.43;;
68858;SDS011;55864;49.238;8.092;2022-12-01T05:38:28;28.53;;;11.80;;
68858;SDS011;55864;49.238;8.092;2022-12-01T05:40:28;24.47;;;10.87;;
68858;SDS011;55864;49.238;8.092;2022-12-01T05:42:29;25.07;;;10.47;;
68858;SDS011;55864;49.238;8.092;2022-12-01T05:44:29;25.60;;;10.33;;
68858;SDS011;55864;49.238;8.092;2022-12-01T05:46:31;22.53;;;10.20;;
68858;SDS011;55864;49.238;8.092;2022-12-01T05:48:32;25.60;;;10.90;;
68858;SDS011;55864;49.238;8.092;2022-12-01T05:50:32;26.97;;;12.03;;
68858;SDS011;55864;49.238;8.092;2022-12-01T05:52:34;28.50;;;12.70;;
68858;SDS011;55864;49.238;8.092;2022-12-01T05:54:35;31.67;;;12.33;;
68858;SDS011;55864;49.238;8.092;2022-12-01T05:56:35;25.80;;;11.83;;
68858;SDS011;55864;49.238;8.092;2022-12-01T05:58:36;26.77;;;12.40;;
68858;SDS011;55864;49.238;8.092;2022-12-01T06:00:36;33.43;;;15.27;;
68858;SDS011;55864;49.238;8.092;2022-12-01T06:02:38;35.30;;;14.50;;
68858;SDS011;55864;49.238;8.092;2022-12-01T06:04:39;32.50;;;13.20;;
68858;SDS011;55864;49.238;8.092;2022-12-01T06:06:40;24.50;;;10.77;;
68858;SDS011;55864;49.238;8.092;2022-12-01T06:08:40;25.27;;;10.03;;
68858;SDS011;55864;49.238;8.092;2022-12-01T06:10:41;24.13;;;10.50;;
68858;SDS011;55864;49.238;8.092;2022-12-01T06:12:42;25.87;;;9.10;;
68858;SDS011;55864;49.238;8.092;2022-12-01T06:14:42;21.13;;;9.00;;
68858;SDS011;55864;49.238;8.092;2022-12-01T06:16:43;22.63;;;9.67;;
68858;SDS011;55864;49.238;8.092;2022-12-01T06:18:45;21.37;;;9.43;;
68858;SDS011;55864;49.238;8.092;2022-12-01T06:20:46;22.87;;;9.73;;
68858;SDS011;55864;49.238;8.092;2022-12-01T06:22:46;25.87;;;10.60;;
68858;SDS011;55864;49.238;8.092;2022-12-01T06:24:47;23.53;;;9.17;;
68858;SDS011;55864;49.238;8.092;2022-12-01T06:26:48;21.80;;;9.10;;
68858;SDS011;55864;49.238;8.092;2022-12-01T06:28:48;22.23;;;9.80;;
68858;SDS011;55864;49.238;8.092;2022-12-01T06:30:49;23.00;;;9.00;;
68858;SDS011;55864;49.238;8.092;2022-12-01T06:32:49;21.10;;;9.03;;
68858;SDS011;55864;49.238;8.092;2022-12-01T06:34:51;20.20;;;8.70;;
68858;SDS011;55864;49.238;8.092;2022-12-01T06:36:52;21.63;;;8.70;;
68858;SDS011;55864;49.238;8.092;2022-12-01T06:38:52;22.20;;;9.60;;
68858;SDS011;55864;49.238;8.092;2022-12-01T06:40:53;20.57;;;8.83;;
68858;SDS011;55864;49.238;8.092;2022-12-01T06:42:53;22.33;;;10.73;;
68858;SDS011;55864;49.238;8.092;2022-12-01T06:44:54;22.57;;;9.93;;
68858;SDS011;55864;49.238;8.092;2022-12-01T06:46:55;27.17;;;10.30;;
68858;SDS011;55864;49.238;8.092;2022-12-01T06:48:55;24.50;;;9.47;;
68858;SDS011;55864;49.238;8.092;2022-12-01T06:50:58;22.77;;;9.37;;
68858;SDS011;55864;49.238;8.092;2022-12-01T06:52:59;23.13;;;9.35;;
68858;SDS011;55864;49.238;8.092;2022-12-01T06:55:00;24.10;;;10.10;;
68858;SDS011;55864;49.238;8.092;2022-12-01T06:57:00;24.53;;;10.10;;
68858;SDS011;55864;49.238;8.092;2022-12-01T06:59:01;25.60;;;11.13;;
68858;SDS011;55864;49.238;8.092;2022-12-01T07:01:06;26.53;;;9.93;;
68858;SDS011;55864;49.238;8.092;2022-12-01T07:03:07;26.43;;;10.97;;
68858;SDS011;55864;49.238;8.092;2022-12-01T07:05:08;25.63;;;10.30;;
68858;SDS011;55864;49.238;8.092;2022-12-01T07:07:10;28.30;;;10.80;;
68858;SDS011;55864;49.238;8.092;2022-12-01T07:09:11;24.13;;;9.83;;
68858;SDS011;55864;49.238;8.092;2022-12-01T07:11:12;26.43;;;10.93;;
68858;SDS011;55864;49.238;8.092;2022-12-01T07:13:14;26.38;;;9.60;;
68858;SDS011;55864;49.238;8.092;2022-12-01T07:15:15;27.10;;;10.93;;
68858;SDS011;55864;49.238;8.092;2022-12-01T07:17:15;25.07;;;10.30;;
68858;SDS011;55864;49.238;8.092;2022-12-01T07:19:16;23.97;;;10.37;;
68858;SDS011;55864;49.238;8.092;2022-12-01T07:21:16;25.07;;;10.03;;
68858;SDS011;55864;49.238;8.092;2022-12-01T07:23:18;22.00;;;9.73;;
68858;SDS011;55864;49.238;8.092;2022-12-01T07:25:19;24.77;;;9.63;;
68858;SDS011;55864;49.238;8.092;2022-12-01T07:27:19;23.80;;;9.70;;
68858;SDS011;55864;49.238;8.092;2022-12-01T07:29:20;21.63;;;9.40;;
68858;SDS011;55864;49.238;8.092;2022-12-01T07:31:21;23.50;;;9.90;;
68858;SDS011;55864;49.238;8.092;2022-12-01T07:33:21;21.73;;;9.60;;
68858;SDS011;55864;49.238;8.092;2022-12-01T07:35:22;28.40;;;12.20;;
68858;SDS011;55864;49.238;8.092;2022-12-01T07:37:22;25.37;;;11.33;;
68858;SDS011;55864;49.238;8.092;2022-12-01T07:39:24;23.20;;;10.27;;
68858;SDS011;55864;49.238;8.092;2022-12-01T07:41:24;22.87;;;9.40;;
68858;SDS011;55864;49.238;8.092;2022-12-01T07:43:25;23.13;;;9.40;;
68858;SDS011;55864;49.238;8.092;2022-12-01T07:45:25;23.93;;;9.90;;
68858;SDS011;55864;49.238;8.092;2022-12-01T07:47:26;21.40;;;9.60;;
68858;SDS011;55864;49.238;8.092;2022-12-01T07:49:26;25.03;;;9.77;;
68858;SDS011;55864;49.238;8.092;2022-12-01T07:51:27;23.73;;;9.60;;
68858;SDS011;55864;49.238;8.092;2022-12-01T07:53:28;22.43;;;9.50;;
68858;SDS011;55864;49.238;8.092;2022-12-01T07:55:30;21.23;;;9.63;;
68858;SDS011;55864;49.238;8.092;2022-12-01T07:57:30;22.77;;;9.70;;
68858;SDS011;55864;49.238;8.092;2022-12-01T07:59:30;23.13;;;10.10;;
68858;SDS011;55864;49.238;8.092;2022-12-01T08:01:31;23.60;;;9.87;;
68858;SDS011;55864;49.238;8.092;2022-12-01T08:03:32;24.73;;;10.23;;
68858;SDS011;55864;49.238;8.092;2022-12-01T08:05:32;25.03;;;10.13;;
68858;SDS011;55864;49.238;8.092;2022-12-01T08:07:33;24.00;;;9.67;;
68858;SDS011;55864;49.238;8.092;2022-12-01T08:09:33;23.13;;;9.80;;
68858;SDS011;55864;49.238;8.092;2022-12-01T08:11:35;24.80;;;10.37;;
68858;SDS011;55864;49.238;8.092;2022-12-01T08:13:36;22.90;;;10.07;;
68858;SDS011;55864;49.238;8.092;2022-12-01T08:15:37;22.93;;;9.80;;
68858;SDS011;55864;49.238;8.092;2022-12-01T08:17:37;25.80;;;10.33;;
68858;SDS011;55864;49.238;8.092;2022-12-01T08:19:38;24.40;;;10.57;;
68858;SDS011;55864;49.238;8.092;2022-12-01T08:21:38;25.27;;;10.83;;
68858;SDS011;55864;49.238;8.092;2022-12-01T08:23:39;26.60;;;10.47;;
68858;SDS011;55864;49.238;8.092;2022-12-01T08:25:39;24.60;;;10.40;;
68858;SDS011;55864;49.238;8.092;2022-12-01T08:27:41;30.60;;;10.60;;
68858;SDS011;55864;49.238;8.092;2022-12-01T08:29:42;26.57;;;10.83;;
68858;SDS011;55864;49.238;8.092;2022-12-01T08:31:42;22.77;;;10.03;;
68858;SDS011;55864;49.238;8.092;2022-12-01T08:33:43;24.57;;;10.63;;
68858;SDS011;55864;49.238;8.092;2022-12-01T08:35:44;32.57;;;10.80;;
68858;SDS011;55864;49.238;8.092;2022-12-01T08:37:45;27.57;;;10.87;;
68858;SDS011;55864;49.238;8.092;2022-12-01T08:39:45;23.00;;;9.93;;
68858;SDS011;55864;49.238;8.092;2022-12-01T08:41:46;25.33;;;10.57;;
68858;SDS011;55864;49.238;8.092;2022-12-01T08:43:47;26.23;;;11.10;;
68858;SDS011;55864;49.238;8.092;2022-12-01T08:45:48;28.97;;;10.77;;
68858;SDS011;55864;49.238;8.092;2022-12-01T08:47:49;22.13;;;9.83;;
68858;SDS011;55864;49.238;8.092;2022-12-01T08:49:49;26.07;;;10.63;;
68858;SDS011;55864;49.238;8.092;2022-12-01T08:51:50;25.87;;;10.57;;
68858;SDS011;55864;49.238;8.092;2022-12-01T08:53:50;25.33;;;9.43;;
68858;SDS011;55864;49.238;8.092;2022-12-01T08:55:51;24.60;;;10.00;;
68858;SDS011;55864;49.238;8.092;2022-12-01T08:57:51;24.07;;;10.23;;
68858;SDS011;55864;49.238;8.092;2022-12-01T08:59:53;27.73;;;10.90;;
68858;SDS011;55864;49.238;8.092;2022-12-01T09:01:53;25.33;;;9.77;;
68858;SDS011;55864;49.238;8.092;2022-12-01T09:03:55;24.43;;;9.97;;
68858;SDS011;55864;49.238;8.092;2022-12-01T09:06:00;50.67;;;12.37;;
68858;SDS011;55864;49.238;8.092;2022-12-01T09:08:01;36.13;;;9.60;;
68858;SDS011;55864;49.238;8.092;2022-12-01T09:10:02;24.07;;;10.30;;
68858;SDS011;55864;49.238;8.092;2022-12-01T09:12:03;25.80;;;9.87;;
68858;SDS011;55864;49.238;8.092;2022-12-01T09:14:03;24.63;;;10.10;;
68858;SDS011;55864;49.238;8.092;2022-12-01T09:16:06;23.80;;;10.37;;
68858;SDS011;55864;49.238;8.092;2022-12-01T09:18:09;23.30;;;9.30;;
68858;SDS011;55864;49.238;8.092;2022-12-01T09:20:10;25.93;;;9.50;;
68858;SDS011;55864;49.238;8.092;2022-12-01T09:22:11;22.33;;;9.37;;
68858;SDS011;55864;49.238;8.092;2022-12-01T09:24:12;23.93;;;9.40;;
68858;SDS011;55864;49.238;8.092;2022-12-01T09:26:14;23.47;;;9.63;;
68858;SDS011;55864;49.238;8.092;2022-12-01T09:28:16;23.30;;;10.37;;
68858;SDS011;55864;49.238;8.092;2022-12-01T09:30:18;22.67;;;9.87;;
68858;SDS011;55864;49.238;8.092;2022-12-01T09:32:20;24.77;;;9.90;;
68858;SDS011;55864;49.238;8.092;2022-12-01T09:34:21;24.90;;;9.90;;
68858;SDS011;55864;49.238;8.092;2022-12-01T09:36:22;23.67;;;9.97;;
68858;SDS011;55864;49.238;8.092;2022-12-01T09:38:22;23.97;;;9.53;;
68858;SDS011;55864;49.238;8.092;2022-12-01T09:40:23;23.30;;;10.03;;
68858;SDS011;55864;49.238;8.092;2022-12-01T09:42:29;25.57;;;9.47;;
68858;SDS011;55864;49.238;8.092;2022-12-01T09:44:34;24.43;;;9.60;;
68858;SDS011;55864;49.238;8.092;2022-12-01T09:46:40;24.07;;;9.27;;
68858;SDS011;55864;49.238;8.092;2022-12-01T09:50:46;24.07;;;9.17;;
68858;SDS011;55864;49.238;8.092;2022-12-01T09:52:48;23.80;;;9.23;;
68858;SDS011;55864;49.238;8.092;2022-12-01T09:54:51;22.30;;;9.63;;
68858;SDS011;55864;49.238;8.092;2022-12-01T09:56:53;23.50;;;9.60;;
68858;SDS011;55864;49.238;8.092;2022-12-01T09:58:56;35.30;;;13.40;;
68858;SDS011;55864;49.238;8.092;2022-12-01T10:00:58;22.57;;;9.43;;
68858;SDS011;55864;49.238;8.092;2022-12-01T10:03:00;21.67;;;8.60;;
68858;SDS011;55864;49.238;8.092;2022-12-01T10:05:10;20.07;;;9.13;;
68858;SDS011;55864;49.238;8.092;2022-12-01T10:07:16;21.03;;;8.63;;
68858;SDS011;55864;49.238;8.092;2022-12-01T10:09:21;23.93;;;9.37;;
68858;SDS011;55864;49.238;8.092;2022-12-01T10:11:27;24.20;;;8.83;;
68858;SDS011;55864;49.238;8.092;2022-12-01T10:13:30;27.33;;;10.30;;
68858;SDS011;55864;49.238;8.092;2022-12-01T10:15:34;24.43;;;10.07;;
68858;SDS011;55864;49.238;8.092;2022-12-01T10:17:42;24.30;;;9.77;;
68858;SDS011;55864;49.238;8.092;2022-12-01T10:19:52;21.13;;;9.30;;
68858;SDS011;55864;49.238;8.092;2022-12-01T10:22:11;25.40;;;10.70;;
68858;SDS011;55864;49.238;8.092;2022-12-01T10:24:28;21.77;;;9.43;;
68858;SDS011;55864;49.238;8.092;2022-12-01T10:26:43;19.83;;;9.00;;
68858;SDS011;55864;49.238;8.092;2022-12-01T10:28:56;19.47;;;8.57;;
68858;SDS011;55864;49.238;8.092;2022-12-01T10:31:10;20.13;;;8.90;;
68858;SDS011;55864;49.238;8.092;2022-12-01T10:33:20;23.63;;;8.80;;
68858;SDS011;55864;49.238;8.092;2022-12-01T10:35:23;22.63;;;9.23;;
68858;SDS011;55864;49.238;8.092;2022-12-01T10:37:27;22.27;;;9.50;;
68858;SDS011;55864;49.238;8.092;2022-12-01T10:39:30;22.10;;;9.50;;
68858;SDS011;55864;49.238;8.092;2022-12-01T10:41:35;22.80;;;9.50;;
68858;SDS011;55864;49.238;8.092;2022-12-01T10:43:38;22.88;;;9.15;;
68858;SDS011;55864;49.238;8.092;2022-12-01T10:45:43;21.87;;;8.70;;
68858;SDS011;55864;49.238;8.092;2022-12-01T10:50:12;23.90;;;9.40;;
68858;SDS011;55864;49.238;8.092;2022-12-01T10:52:31;23.20;;;9.53;;
68858;SDS011;55864;49.238;8.092;2022-12-01T10:54:35;24.50;;;9.67;;
68858;SDS011;55864;49.238;8.092;2022-12-01T10:56:37;23.63;;;9.77;;
68858;SDS011;55864;49.238;8.092;2022-12-01T10:58:41;22.83;;;9.80;;
68858;SDS011;55864;49.238;8.092;2022-12-01T11:00:53;24.63;;;10.20;;
68858;SDS011;55864;49.238;8.092;2022-12-01T11:02:55;23.37;;;9.60;;
68858;SDS011;55864;49.238;8.092;2022-12-01T11:04:57;24.57;;;10.63;;
68858;SDS011;55864;49.238;8.092;2022-12-01T11:07:00;23.57;;;9.50;;
68858;SDS011;55864;49.238;8.092;2022-12-01T11:09:03;20.50;;;9.13;;
68858;SDS011;55864;49.238;8.092;2022-12-01T11:11:15;24.23;;;9.20;;
68858;SDS011;55864;49.238;8.092;2022-12-01T11:13:23;23.93;;;10.00;;
68858;SDS011;55864;49.238;8.092;2022-12-01T11:15:27;22.07;;;9.97;;
68858;SDS011;55864;49.238;8.092;2022-12-01T11:17:33;22.40;;;9.50;;
68858;SDS011;55864;49.238;8.092;2022-12-01T11:19:36;21.65;;;9.15;;
68858;SDS011;55864;49.238;8.092;2022-12-01T11:21:41;21.47;;;9.00;;
68858;SDS011;55864;49.238;8.092;2022-12-01T11:23:45;22.67;;;8.77;;
68858;SDS011;55864;49.238;8.092;2022-12-01T11:25:55;22.17;;;9.10;;
68858;SDS011;55864;49.238;8.092;2022-12-01T11:27:59;24.13;;;9.40;;
68858;SDS011;55864;49.238;8.092;2022-12-01T11:30:06;22.17;;;8.65;;
68858;SDS011;55864;49.238;8.092;2022-12-01T11:32:20;27.03;;;9.60;;
68858;SDS011;55864;49.238;8.092;2022-12-01T11:34:23;24.90;;;9.87;;
68858;SDS011;55864;49.238;8.092;2022-12-01T11:36:26;23.75;;;8.90;;
68858;SDS011;55864;49.238;8.092;2022-12-01T11:38:36;22.13;;;9.10;;
68858;SDS011;55864;49.238;8.092;2022-12-01T11:40:43;22.27;;;9.60;;
68858;SDS011;55864;49.238;8.092;2022-12-01T11:42:47;23.33;;;10.10;;
68858;SDS011;55864;49.238;8.092;2022-12-01T11:44:51;24.53;;;9.20;;
68858;SDS011;55864;49.238;8.092;2022-12-01T11:46:54;22.57;;;9.30;;
68858;SDS011;55864;49.238;8.092;2022-12-01T11:48:55;22.33;;;9.30;;
68858;SDS011;55864;49.238;8.092;2022-12-01T11:51:02;21.67;;;9.35;;
68858;SDS011;55864;49.238;8.092;2022-12-01T11:53:08;22.57;;;9.10;;
68858;SDS011;55864;49.238;8.092;2022-12-01T11:55:26;23.90;;;8.83;;
68858;SDS011;55864;49.238;8.092;2022-12-01T11:57:28;23.57;;;9.37;;
68858;SDS011;55864;49.238;8.092;2022-12-01T11:59:31;24.17;;;9.37;;
68858;SDS011;55864;49.238;8.092;2022-12-01T12:01:34;20.83;;;8.87;;
68858;SDS011;55864;49.238;8.092;2022-12-01T12:03:40;24.03;;;9.27;;
68858;SDS011;55864;49.238;8.092;2022-12-01T12:06:01;21.00;;;9.20;;
68858;SDS011;55864;49.238;8.092;2022-12-01T12:08:11;22.00;;;8.90;;
68858;SDS011;55864;49.238;8.092;2022-12-01T12:10:26;21.90;;;9.70;;
68858;SDS011;55864;49.238;8.092;2022-12-01T12:12:39;21.37;;;9.33;;
68858;SDS011;55864;49.238;8.092;2022-12-01T12:14:53;19.53;;;8.90;;
68858;SDS011;55864;49.238;8.092;2022-12-01T12:17:07;24.10;;;9.20;;
68858;SDS011;55864;49.238;8.092;2022-12-01T12:19:21;23.17;;;9.20;;